Time;durP1;ratioP1;P1;durP2;ratioP2;P2;SDS_P1;SDS_P2;PMS_P1;PMS_P2;Temp;Humidity;BMP_temperature;BMP_pressure;BME280_temperature;BME280_humidity;BME280_pressure;Samples;Min_cycle;Max_cycle;Signal;HPM_P1;HPM_P2
2022/08/31 00:05:39;;;;;;;4.22;3.65;;;25.80;1.00;;;;;;5032016;28;20075;-60
2022/08/31 00:08:06;;;;;;;3.50;3.28;;;25.80;1.00;;;;;;5037836;28;20041;-60
2022/08/31 00:10:31;;;;;;;4.28;3.88;;;25.80;1.00;;;;;;5034240;28;20017;-60
2022/08/31 00:12:58;;;;;;;3.30;3.10;;;25.80;1.00;;;;;;5032292;28;20136;-60
2022/08/31 00:15:24;;;;;;;4.30;3.88;;;25.80;1.00;;;;;;5033089;28;20080;-60
2022/08/31 00:17:51;;;;;;;4.32;3.92;;;25.70;1.00;;;;;;5032462;28;20387;-60
2022/08/31 00:20:19;;;;;;;3.55;3.13;;;25.70;1.00;;;;;;5032902;28;20021;-60
2022/08/31 00:22:57;;;;;;;4.35;3.88;;;25.70;1.00;;;;;;5032274;28;20035;-60
2022/08/31 00:25:22;;;;;;;4.40;3.92;;;25.80;1.00;;;;;;5031997;28;20430;-59
2022/08/31 00:27:48;;;;;;;5.40;4.75;;;25.90;1.00;;;;;;5028346;28;20037;-60
2022/08/31 00:30:14;;;;;;;5.82;5.32;;;25.80;1.00;;;;;;5033019;28;20057;-60
2022/08/31 00:32:40;;;;;;;5.05;4.57;;;25.60;1.00;;;;;;5034210;28;20628;-60
2022/08/31 00:35:06;;;;;;;5.57;5.07;;;25.60;1.00;;;;;;5044101;28;20056;-60
2022/08/31 00:37:32;;;;;;;6.40;5.80;;;25.60;1.00;;;;;;5031446;28;20036;-60
2022/08/31 00:40:01;;;;;;;6.70;5.45;;;25.50;1.00;;;;;;5032723;28;20021;-60
2022/08/31 00:42:26;;;;;;;6.10;5.05;;;25.60;1.00;;;;;;5023825;28;20492;-60
2022/08/31 00:44:52;;;;;;;6.07;5.47;;;25.50;1.00;;;;;;5026119;28;20056;-60
2022/08/31 00:47:18;;;;;;;5.32;4.82;;;25.60;1.00;;;;;;5031826;28;20025;-60
2022/08/31 00:49:48;;;;;;;5.45;4.95;;;25.50;1.00;;;;;;5032948;28;20340;-60
2022/08/31 00:52:23;;;;;;;4.65;4.30;;;25.40;1.00;;;;;;5028975;28;20025;-60
2022/08/31 00:55:23;;;;;;;4.97;4.28;;;25.40;1.00;;;;;;5031346;28;20029;-60
2022/08/31 00:57:52;;;;;;;5.47;4.70;;;25.50;1.00;;;;;;5007403;28;20045;-60
2022/08/31 01:00:23;;;;;;;5.20;4.05;;;25.60;1.00;;;;;;5030487;28;20426;-60
2022/08/31 01:02:49;;;;;;;4.57;4.18;;;25.60;1.00;;;;;;5029416;28;20049;-60
2022/08/31 01:05:16;;;;;;;4.53;4.13;;;25.40;1.00;;;;;;5032389;28;20099;-60
2022/08/31 01:07:46;;;;;;;4.90;3.83;;;25.50;1.00;;;;;;5031669;28;20407;-60
2022/08/31 01:10:12;;;;;;;3.92;3.58;;;25.40;1.00;;;;;;5029695;28;20036;-62
2022/08/31 01:12:39;;;;;;;4.20;3.63;;;25.30;1.00;;;;;;5038659;28;20101;-60
2022/08/31 01:15:07;;;;;;;3.70;3.38;;;25.30;1.00;;;;;;5031290;28;20033;-61
2022/08/31 01:17:36;;;;;;;4.97;4.57;;;25.30;1.00;;;;;;5027624;28;20026;-60
2022/08/31 01:20:45;;;;;;;7.38;5.72;;;25.30;1.00;;;;;;5020845;28;20025;-60
2022/08/31 01:23:28;;;;;;;5.25;4.85;;;25.30;1.00;;;;;;5023046;28;20508;-60
2022/08/31 01:26:01;;;;;;;5.65;5.13;;;25.20;1.00;;;;;;5029347;28;20022;-60
2022/08/31 01:28:27;;;;;;;5.50;4.93;;;25.20;1.00;;;;;;5030052;28;20114;-60
2022/08/31 01:31:09;;;;;;;6.80;5.97;;;25.30;1.00;;;;;;5027708;28;20116;-60
2022/08/31 01:33:37;;;;;;;5.82;5.30;;;25.20;1.00;;;;;;5030315;28;20029;-60
2022/08/31 01:36:06;;;;;;;6.35;5.80;;;25.20;1.00;;;;;;5028377;28;20065;-60
2022/08/31 01:49:20;;;;;;;6.97;6.30;;;25.20;1.00;;;;;;5007310;28;20065;-60
2022/08/31 01:51:46;;;;;;;5.97;5.32;;;25.20;1.00;;;;;;5028266;28;20391;-60
2022/08/31 01:54:12;;;;;;;6.70;6.13;;;25.40;1.00;;;;;;5026152;28;20029;-59
2022/08/31 01:56:41;;;;;;;7.63;6.82;;;25.30;1.00;;;;;;5027574;28;20040;-60
2022/08/31 01:59:09;;;;;;;7.03;6.43;;;25.10;1.00;;;;;;5030124;28;20128;-60
2022/08/31 02:01:39;;;;;;;7.97;6.75;;;25.20;1.00;;;;;;5027337;28;20141;-60
2022/08/31 02:04:07;;;;;;;7.55;6.32;;;25.10;1.00;;;;;;5044063;28;20140;-60
2022/08/31 02:06:33;;;;;;;7.00;6.30;;;25.30;1.00;;;;;;5031245;28;20040;-60
2022/08/31 02:09:01;;;;;;;7.97;7.30;;;25.20;1.00;;;;;;5027981;28;20199;-60
2022/08/31 02:11:27;;;;;;;8.27;7.50;;;25.30;1.00;;;;;;5029185;28;20017;-60
2022/08/31 02:13:53;;;;;;;8.15;7.45;;;25.20;1.00;;;;;;5039249;28;20037;-60
2022/08/31 02:16:18;;;;;;;7.22;6.53;;;25.20;1.00;;;;;;5030368;28;20053;-60
2022/08/31 02:18:44;;;;;;;7.35;6.57;;;25.30;1.00;;;;;;5039900;28;20048;-60
2022/08/31 02:21:12;;;;;;;7.03;6.43;;;25.40;1.00;;;;;;5028601;28;20064;-60
2022/08/31 02:23:37;;;;;;;8.13;7.32;;;25.20;1.00;;;;;;5035522;28;20032;-60
2022/08/31 02:26:03;;;;;;;8.02;7.05;;;25.20;1.00;;;;;;5043409;28;20033;-60
2022/08/31 02:28:28;;;;;;;7.13;6.43;;;25.20;1.00;;;;;;5029843;28;20033;-60
2022/08/31 02:30:54;;;;;;;7.45;6.85;;;25.10;1.00;;;;;;5028660;28;20022;-60
2022/08/31 02:33:20;;;;;;;6.35;5.75;;;25.20;1.00;;;;;;5029658;28;20375;-60
2022/08/31 02:35:45;;;;;;;6.78;6.13;;;25.30;1.00;;;;;;5029092;28;20037;-60
2022/08/31 02:38:11;;;;;;;6.72;6.00;;;25.20;1.00;;;;;;5037226;28;20033;-60
2022/08/31 02:40:39;;;;;;;6.85;6.25;;;25.10;1.00;;;;;;5031218;28;20026;-60
2022/08/31 02:43:05;;;;;;;5.82;5.32;;;25.20;1.00;;;;;;5032429;28;20363;-60
2022/08/31 02:45:31;;;;;;;6.68;6.00;;;25.20;1.00;;;;;;5028944;28;20041;-60
2022/08/31 02:47:56;;;;;;;5.82;5.30;;;25.20;1.00;;;;;;5040136;28;20033;-60
2022/08/31 02:50:22;;;;;;;7.22;6.38;;;25.10;1.00;;;;;;5035633;28;20057;-60
2022/08/31 02:52:49;;;;;;;7.35;6.65;;;25.10;1.00;;;;;;5029957;28;20336;-60
2022/08/31 02:55:15;;;;;;;5.68;5.18;;;25.00;1.00;;;;;;5023411;28;20026;-60
2022/08/31 02:57:42;;;;;;;6.25;5.65;;;25.20;1.00;;;;;;5025346;28;20048;-60
2022/08/31 03:00:09;;;;;;;7.18;6.00;;;25.10;1.00;;;;;;5030954;28;20026;-60
2022/08/31 03:02:34;;;;;;;9.70;6.57;;;25.10;1.00;;;;;;5031702;28;20032;-60
2022/08/31 03:05:02;;;;;;;6.28;5.68;;;25.00;1.00;;;;;;5034664;28;20026;-60
2022/08/31 03:07:28;;;;;;;6.43;5.82;;;25.00;1.00;;;;;;5031343;28;20393;-60
2022/08/31 03:09:53;;;;;;;6.15;5.53;;;25.00;1.00;;;;;;5039831;28;20064;-60
2022/08/31 03:12:19;;;;;;;7.35;5.90;;;25.00;1.00;;;;;;5032779;28;20060;-60
2022/08/31 03:18:06;;;;;;;5.93;5.32;;;24.90;1.00;;;;;;5020950;28;20024;-60
2022/08/31 03:20:32;;;;;;;6.07;5.57;;;25.10;1.00;;;;;;5032489;28;20037;-60
2022/08/31 03:22:58;;;;;;;6.82;6.22;;;25.20;1.00;;;;;;5032653;28;20075;-60
2022/08/31 03:25:24;;;;;;;5.85;5.35;;;25.20;1.00;;;;;;5033188;28;20560;-60
2022/08/31 03:27:49;;;;;;;7.45;6.55;;;25.20;1.00;;;;;;5030982;28;20041;-60
2022/08/31 03:30:18;;;;;;;6.50;5.90;;;25.00;1.00;;;;;;5030038;28;20039;-60
2022/08/31 03:32:44;;;;;;;5.00;4.60;;;25.00;1.00;;;;;;5033414;28;20036;-59
2022/08/31 03:35:11;;;;;;;6.80;5.35;;;25.10;1.00;;;;;;5030955;28;20104;-60
2022/08/31 03:37:36;;;;;;;6.95;6.35;;;25.00;1.00;;;;;;5032555;28;20018;-60
2022/08/31 03:40:03;;;;;;;7.03;6.30;;;24.80;1.00;;;;;;5031923;28;20029;-60
2022/08/31 03:42:29;;;;;;;6.00;5.50;;;24.90;1.00;;;;;;5032018;28;20087;-60
2022/08/31 03:44:55;;;;;;;5.97;5.47;;;24.90;1.00;;;;;;5032093;28;20029;-61
2022/08/31 03:47:30;;;;;;;6.18;5.57;;;25.00;1.00;;;;;;5031673;28;20118;-60
2022/08/31 03:49:55;;;;;;;7.85;7.15;;;25.10;1.00;;;;;;5033214;28;20063;-60
2022/08/31 03:52:21;;;;;;;8.13;7.32;;;25.10;1.00;;;;;;5028986;28;20018;-61
2022/08/31 03:54:47;;;;;;;8.38;7.57;;;25.00;1.00;;;;;;5032359;28;20147;-60
2022/08/31 03:57:13;;;;;;;8.07;6.20;;;25.00;1.00;;;;;;5030727;28;20029;-60
2022/08/31 03:59:38;;;;;;;7.50;6.65;;;25.00;1.00;;;;;;5032029;28;20391;-60
2022/08/31 04:02:07;;;;;;;7.97;7.18;;;25.20;1.00;;;;;;5032753;28;20031;-60
2022/08/31 04:04:33;;;;;;;8.10;7.30;;;25.20;1.00;;;;;;5032433;28;20518;-60
2022/08/31 04:06:59;;;;;;;8.38;7.57;;;25.20;1.00;;;;;;5032569;28;20076;-60
2022/08/31 04:09:25;;;;;;;9.13;7.00;;;25.20;1.00;;;;;;5032682;28;20095;-60
2022/08/31 04:11:50;;;;;;;7.65;6.80;;;25.00;1.00;;;;;;5031047;28;20095;-60
2022/08/31 04:14:16;;;;;;;7.18;6.60;;;25.10;1.00;;;;;;5037091;28;20045;-60
2022/08/31 04:16:42;;;;;;;6.80;6.20;;;25.00;1.00;;;;;;5024735;28;20026;-60
2022/08/31 04:19:10;;;;;;;6.63;6.03;;;25.10;1.00;;;;;;5022176;28;20029;-60
2022/08/31 04:21:36;;;;;;;7.38;6.65;;;25.10;1.00;;;;;;5036159;28;20112;-59
2022/08/31 04:24:02;;;;;;;7.72;6.13;;;25.00;1.00;;;;;;5030767;28;20075;-60
2022/08/31 04:26:34;;;;;;;9.50;8.68;;;25.00;1.00;;;;;;5030546;28;20029;-60
2022/08/31 04:29:00;;;;;;;10.50;9.40;;;24.80;1.00;;;;;;5031918;28;20064;-60
2022/08/31 04:31:27;;;;;;;9.50;8.60;;;24.70;1.00;;;;;;5033098;28;20021;-60
2022/08/31 04:33:55;;;;;;;11.35;8.98;;;24.70;1.00;;;;;;5032040;28;20034;-60
2022/08/31 04:36:23;;;;;;;11.02;10.02;;;24.90;1.00;;;;;;5032741;28;20013;-60
2022/08/31 04:38:51;;;;;;;11.45;10.35;;;25.00;1.00;;;;;;5031858;28;20029;-60
2022/08/31 04:41:18;;;;;;;11.75;10.02;;;24.70;1.00;;;;;;5031654;28;20030;-60
2022/08/31 04:43:47;;;;;;;9.43;8.52;;;24.80;1.00;;;;;;5032220;28;20021;-60
2022/08/31 04:46:14;;;;;;;10.95;8.13;;;24.80;1.00;;;;;;5032591;28;20017;-60
2022/08/31 04:48:40;;;;;;;8.25;7.45;;;24.80;1.00;;;;;;5031464;28;20175;-59
2022/08/31 04:51:10;;;;;;;9.13;7.97;;;24.70;1.00;;;;;;5032365;28;20030;-60
2022/08/31 04:53:36;;;;;;;8.63;7.63;;;24.90;1.00;;;;;;5032605;28;20189;-60
2022/08/31 04:56:23;;;;;;;8.68;7.85;;;24.80;1.00;;;;;;5030696;28;20104;-60
2022/08/31 04:58:52;;;;;;;9.43;8.52;;;24.80;1.00;;;;;;5023787;28;20029;-60
2022/08/31 05:01:22;;;;;;;8.55;7.65;;;24.80;1.00;;;;;;5034292;28;20049;-60
2022/08/31 05:03:52;;;;;;;8.82;7.88;;;24.60;1.00;;;;;;5031188;28;20052;-60
2022/08/31 05:06:32;;;;;;;9.82;7.88;;;24.90;1.00;;;;;;5032243;28;20022;-60
2022/08/31 05:09:00;;;;;;;8.50;7.70;;;24.80;1.00;;;;;;5031554;28;20065;-60
2022/08/31 05:11:28;;;;;;;8.23;7.43;;;24.80;1.00;;;;;;5031205;28;20030;-60
2022/08/31 05:13:56;;;;;;;8.48;7.15;;;24.80;1.00;;;;;;5031428;28;20072;-60
2022/08/31 05:16:22;;;;;;;7.10;6.45;;;24.80;1.00;;;;;;5032287;28;20029;-60
2022/08/31 05:18:49;;;;;;;7.63;6.82;;;24.90;1.00;;;;;;5030659;28;20029;-59
2022/08/31 05:21:33;;;;;;;8.55;7.18;;;24.90;1.00;;;;;;5031768;28;20033;-60
2022/08/31 05:24:05;;;;;;;7.38;6.65;;;24.80;1.00;;;;;;5031093;28;20037;-60
2022/08/31 05:26:33;;;;;;;8.43;7.35;;;24.80;1.00;;;;;;5032070;28;20075;-60
2022/08/31 05:29:02;;;;;;;7.35;6.63;;;24.80;1.00;;;;;;5028823;28;20037;-60
2022/08/31 05:31:28;;;;;;;9.82;7.60;;;24.60;1.00;;;;;;5039998;28;20040;-60
2022/08/31 05:33:55;;;;;;;8.88;7.10;;;24.60;1.00;;;;;;5035507;28;20021;-59
2022/08/31 05:36:21;;;;;;;8.10;7.00;;;24.70;1.00;;;;;;5042570;28;20029;-59
2022/08/31 05:38:47;;;;;;;8.02;6.63;;;24.60;1.00;;;;;;5031949;28;20017;-59
2022/08/31 05:41:13;;;;;;;7.47;6.88;;;24.50;1.00;;;;;;5036147;28;20032;-60
2022/08/31 05:43:39;;;;;;;8.43;6.57;;;24.60;1.00;;;;;;5027457;28;20668;-60
2022/08/31 05:46:09;;;;;;;7.93;6.65;;;24.40;1.00;;;;;;5030248;28;20025;-60
2022/08/31 05:48:36;;;;;;;7.78;6.97;;;24.40;1.00;;;;;;5030884;28;20048;-59
2022/08/31 05:51:15;;;;;;;7.70;6.90;;;24.50;1.00;;;;;;5030514;28;20033;-59
2022/08/31 05:53:41;;;;;;;6.97;6.38;;;24.60;1.00;;;;;;5031568;28;20070;-60
2022/08/31 05:56:10;;;;;;;7.80;7.00;;;24.60;1.00;;;;;;5041452;28;20036;-60
2022/08/31 05:58:37;;;;;;;8.13;6.75;;;24.60;1.00;;;;;;5040805;28;20029;-60
2022/08/31 06:01:11;;;;;;;7.38;6.43;;;24.70;1.00;;;;;;5030881;28;20112;-60
2022/08/31 06:03:36;;;;;;;8.10;7.30;;;24.60;1.00;;;;;;5027903;28;20025;-60
2022/08/31 06:06:02;;;;;;;8.10;6.97;;;24.50;1.00;;;;;;5030812;28;20451;-60
2022/08/31 06:08:27;;;;;;;10.35;8.40;;;24.50;1.00;;;;;;5030975;28;20095;-60
2022/08/31 06:10:58;;;;;;;9.63;7.38;;;24.40;1.00;;;;;;5031684;28;20321;-60
2022/08/31 06:13:25;;;;;;;10.07;7.50;;;24.40;1.00;;;;;;5041796;28;20463;-60
2022/08/31 06:15:51;;;;;;;8.77;7.88;;;24.60;1.00;;;;;;5031336;28;20018;-59
2022/08/31 06:18:19;;;;;;;9.45;8.35;;;24.40;1.00;;;;;;5029451;28;20124;-60
2022/08/31 06:20:45;;;;;;;8.35;7.20;;;24.40;1.00;;;;;;5036691;28;20033;-60
2022/08/31 06:23:11;;;;;;;8.18;7.18;;;24.50;1.00;;;;;;5045732;28;20056;-60
2022/08/31 06:25:37;;;;;;;10.45;8.70;;;24.70;1.00;;;;;;5030019;28;20064;-60
2022/08/31 06:28:05;;;;;;;11.82;10.05;;;24.40;1.00;;;;;;5030369;28;20505;-60
2022/08/31 06:30:36;;;;;;;10.55;9.45;;;24.30;1.00;;;;;;5019001;28;20029;-60
2022/08/31 06:33:01;;;;;;;10.70;9.60;;;24.40;1.00;;;;;;5026012;28;20026;-60
2022/08/31 06:35:28;;;;;;;14.45;9.75;;;24.30;1.00;;;;;;5033703;28;20020;-60
2022/08/31 06:37:55;;;;;;;11.20;10.18;;;24.30;1.00;;;;;;5034113;28;20037;-60
2022/08/31 06:40:23;;;;;;;15.15;10.43;;;24.40;1.00;;;;;;5033080;28;20079;-60
2022/08/31 06:42:49;;;;;;;12.93;10.18;;;24.30;1.00;;;;;;5032281;28;20021;-60
2022/08/31 06:45:14;;;;;;;14.85;9.48;;;24.50;1.00;;;;;;5034777;28;20103;-60
2022/08/31 06:47:40;;;;;;;11.52;10.38;;;24.50;1.00;;;;;;5032099;28;20033;-60
2022/08/31 06:50:07;;;;;;;11.05;9.90;;;24.50;1.00;;;;;;5034431;28;20135;-60
2022/08/31 06:52:33;;;;;;;12.05;10.68;;;24.60;1.00;;;;;;5033303;28;20030;-60
2022/08/31 06:54:59;;;;;;;13.35;11.73;;;24.60;1.00;;;;;;5034083;28;20026;-60
2022/08/31 06:57:25;;;;;;;15.10;10.88;;;24.50;1.00;;;;;;5033463;28;20104;-60
2022/08/31 06:59:52;;;;;;;13.00;11.70;;;24.70;1.00;;;;;;5034606;28;20112;-61
2022/08/31 07:02:18;;;;;;;13.38;12.05;;;24.70;1.00;;;;;;5037978;28;20049;-60
2022/08/31 07:04:44;;;;;;;14.80;11.70;;;24.80;1.00;;;;;;5034471;28;20022;-60
2022/08/31 07:07:10;;;;;;;16.02;12.48;;;24.80;1.00;;;;;;5038085;28;20032;-59
2022/08/31 07:09:38;;;;;;;13.50;12.00;;;24.80;1.00;;;;;;5027679;28;20076;-59
2022/08/31 07:12:06;;;;;;;13.20;11.82;;;24.80;1.00;;;;;;5033897;28;20025;-57
2022/08/31 07:14:31;;;;;;;13.23;11.32;;;24.90;1.00;;;;;;5033237;28;20525;-53
2022/08/31 07:16:58;;;;;;;13.65;10.82;;;24.90;1.00;;;;;;5033787;28;20025;-52
2022/08/31 07:19:25;;;;;;;12.68;11.57;;;24.90;1.00;;;;;;5032488;28;20100;-54
2022/08/31 07:21:54;;;;;;;14.10;12.80;;;24.90;1.00;;;;;;5027520;28;20036;-53
2022/08/31 07:24:23;;;;;;;11.48;10.38;;;24.80;1.00;;;;;;5030188;28;20030;-55
2022/08/31 07:26:53;;;;;;;12.93;10.60;;;24.80;1.00;;;;;;5031856;28;20042;-52
2022/08/31 07:29:21;;;;;;;10.38;9.38;;;24.60;1.00;;;;;;5027568;28;20103;-53
2022/08/31 07:35:33;;;;;;;10.35;9.45;;;24.70;1.00;;;;;;5036093;28;20079;-56
2022/08/31 07:43:34;;;;;;;8.60;7.88;;;24.70;1.00;;;;;;5033241;28;20030;-53
2022/08/31 07:45:59;;;;;;;9.63;8.73;;;24.70;1.00;;;;;;5041567;28;20403;-55
2022/08/31 07:48:26;;;;;;;11.88;10.20;;;24.60;1.00;;;;;;5034053;28;20029;-57
2022/08/31 07:50:52;;;;;;;11.48;10.40;;;24.60;1.00;;;;;;5033142;28;20337;-56
2022/08/31 07:53:19;;;;;;;10.98;9.98;;;24.60;1.00;;;;;;5034278;28;20076;-52
2022/08/31 07:55:46;;;;;;;13.13;11.93;;;24.50;1.00;;;;;;5042805;28;20091;-51
2022/08/31 07:58:14;;;;;;;13.68;12.30;;;24.30;1.00;;;;;;5033863;28;20029;-52
2022/08/31 08:00:40;;;;;;;21.23;13.63;;;24.40;1.00;;;;;;5033139;28;20099;-56
2022/08/31 08:03:11;;;;;;;16.17;13.32;;;24.40;1.00;;;;;;5027869;28;20460;-58
2022/08/31 08:05:40;;;;;;;13.95;12.65;;;24.40;1.00;;;;;;5045495;28;20029;-56
2022/08/31 08:08:07;;;;;;;14.60;13.23;;;24.30;1.00;;;;;;5032233;28;20033;-55
2022/08/31 08:10:37;;;;;;;15.60;13.77;;;24.40;1.00;;;;;;5032762;28;20490;-54
2022/08/31 08:13:03;;;;;;;16.48;14.55;;;24.50;1.00;;;;;;5019616;28;20033;-52
2022/08/31 08:15:30;;;;;;;16.65;14.95;;;24.60;1.00;;;;;;5044354;28;20025;-57
2022/08/31 08:18:10;;;;;;;15.05;13.63;;;24.70;1.00;;;;;;5029904;28;20382;-57
2022/08/31 08:20:37;;;;;;;16.58;14.90;;;24.70;1.00;;;;;;5038182;28;20481;-57
2022/08/31 08:23:15;;;;;;;15.23;13.68;;;24.80;1.00;;;;;;5033623;28;20021;-55
2022/08/31 08:25:42;;;;;;;14.98;13.48;;;24.90;1.00;;;;;;5031215;28;20502;-56
2022/08/31 08:28:07;;;;;;;15.43;13.93;;;25.00;1.00;;;;;;5033041;28;20037;-53
2022/08/31 08:30:33;;;;;;;14.02;12.73;;;25.00;1.00;;;;;;5032481;28;20039;-56
2022/08/31 08:33:02;;;;;;;13.43;12.05;;;25.10;1.00;;;;;;5031774;28;20079;-55
2022/08/31 08:35:34;;;;;;;14.00;12.60;;;25.10;1.00;;;;;;5040148;28;20035;-55
2022/08/31 08:38:00;;;;;;;14.90;13.60;;;25.20;1.00;;;;;;5037557;28;20045;-54
2022/08/31 08:40:36;;;;;;;14.30;12.90;;;25.30;1.00;;;;;;5039584;28;20021;-55
2022/08/31 08:43:03;;;;;;;14.18;12.80;;;25.40;1.00;;;;;;5038289;28;20033;-54
2022/08/31 08:45:30;;;;;;;14.10;12.70;;;25.40;1.00;;;;;;5034473;28;20018;-57
2022/08/31 08:47:57;;;;;;;13.07;11.88;;;25.30;1.00;;;;;;5032935;28;20116;-56
2022/08/31 08:50:26;;;;;;;13.48;12.27;;;25.30;1.00;;;;;;5030849;28;20047;-56
2022/08/31 08:59:36;;;;;;;11.65;10.55;;;25.00;1.00;;;;;;5018887;28;20036;-57
2022/08/31 09:02:05;;;;;;;14.02;12.55;;;25.00;1.00;;;;;;5027371;28;20108;-55
2022/08/31 09:04:30;;;;;;;12.75;10.93;;;24.90;1.00;;;;;;5032198;28;20076;-57
2022/08/31 09:07:21;;;;;;;12.45;11.20;;;25.00;1.00;;;;;;5029687;28;20061;-55
2022/08/31 09:10:16;;;;;;;13.85;12.55;;;25.10;1.00;;;;;;5022401;28;20033;-55
2022/08/31 09:13:08;;;;;;;9.75;8.85;;;25.00;1.00;;;;;;5040755;28;20132;-55
2022/08/31 09:16:03;;;;;;;8.55;7.72;;;25.10;1.00;;;;;;5023867;28;20057;-53
2022/08/31 09:18:32;;;;;;;8.82;8.02;;;25.40;1.00;;;;;;5032009;28;20056;-54
2022/08/31 09:21:24;;;;;;;7.65;6.95;;;25.40;1.00;;;;;;5030145;28;20395;-53
2022/08/31 09:24:02;;;;;;;7.80;7.10;;;25.40;1.00;;;;;;5031620;28;20391;-56
2022/08/31 09:26:55;;;;;;;7.35;6.70;;;25.30;1.00;;;;;;5030990;28;20017;-54
2022/08/31 09:29:27;;;;;;;7.75;7.07;;;25.40;1.00;;;;;;5028853;28;20049;-52
2022/08/31 09:32:08;;;;;;;8.35;7.03;;;25.30;1.00;;;;;;5031766;28;20064;-55
2022/08/31 09:34:39;;;;;;;8.70;7.90;;;25.40;1.00;;;;;;5030586;28;20025;-53
2022/08/31 09:37:13;;;;;;;7.88;7.05;;;25.40;1.00;;;;;;5021349;28;20025;-55
2022/08/31 09:39:39;;;;;;;8.60;7.80;;;25.60;1.00;;;;;;5029742;28;20025;-53
2022/08/31 09:42:33;;;;;;;9.48;8.27;;;25.60;1.00;;;;;;5032069;28;20162;-53
2022/08/31 09:45:03;;;;;;;8.95;8.07;;;25.60;1.00;;;;;;5031568;28;20557;-51
2022/08/31 09:47:47;;;;;;;9.00;8.30;;;25.60;1.00;;;;;;5021445;28;20029;-52
2022/08/31 09:50:29;;;;;;;11.38;9.15;;;25.70;1.00;;;;;;5027011;28;20117;-55
2022/08/31 09:56:22;;;;;;;8.68;7.80;;;25.80;1.00;;;;;;5037581;28;20482;-55
2022/08/31 09:58:53;;;;;;;9.85;8.90;;;25.80;1.00;;;;;;5032101;28;20025;-55
2022/08/31 10:01:54;;;;;;;7.18;6.57;;;25.70;1.00;;;;;;5029835;28;20029;-54
2022/08/31 10:04:22;;;;;;;9.25;7.20;;;25.70;1.00;;;;;;5030429;28;20072;-55
2022/08/31 10:06:51;;;;;;;7.78;7.05;;;25.80;1.00;;;;;;5030909;28;20095;-54
2022/08/31 10:09:31;;;;;;;7.32;5.95;;;25.90;1.00;;;;;;5033008;28;20041;-55
2022/08/31 10:12:03;;;;;;;7.03;6.32;;;26.00;1.00;;;;;;5035020;28;20073;-56
2022/08/31 10:14:53;;;;;;;6.78;6.07;;;26.10;1.00;;;;;;5035945;28;20033;-54
2022/08/31 10:17:28;;;;;;;6.38;5.53;;;26.10;1.00;;;;;;5025498;28;20426;-54
2022/08/31 10:20:05;;;;;;;6.05;5.45;;;26.20;1.00;;;;;;5034795;28;20479;-58
2022/08/31 10:22:40;;;;;;;6.95;6.03;;;26.20;1.00;;;;;;5035394;28;20426;-52
2022/08/31 10:25:19;;;;;;;6.75;6.10;;;26.30;1.00;;;;;;5036694;28;20124;-53
2022/08/31 10:28:30;;;;;;;5.90;5.40;;;26.40;1.00;;;;;;5036512;28;20130;-54
2022/08/31 10:31:02;;;;;;;5.95;5.30;;;26.40;1.00;;;;;;5024619;28;20447;-53
2022/08/31 10:36:50;;;;;;;8.48;6.38;;;26.50;1.00;;;;;;5035808;28;20498;-57
2022/08/31 10:42:49;;;;;;;7.68;7.05;;;26.50;1.00;;;;;;5033079;28;20033;-55
2022/08/31 10:45:22;;;;;;;8.00;6.93;;;26.60;1.00;;;;;;5035292;28;20490;-55
2022/08/31 10:47:52;;;;;;;8.13;7.40;;;26.70;1.00;;;;;;5033767;28;20034;-56
2022/08/31 10:50:25;;;;;;;8.32;7.63;;;26.70;1.00;;;;;;5035299;28;20136;-53
2022/08/31 10:53:02;;;;;;;7.10;6.40;;;26.70;1.00;;;;;;5039828;28;20390;-53
2022/08/31 10:55:45;;;;;;;8.63;7.82;;;26.80;1.00;;;;;;5034010;28;20021;-56
2022/08/31 10:58:36;;;;;;;7.28;6.68;;;26.80;1.00;;;;;;5034706;28;20096;-56
2022/08/31 11:01:22;;;;;;;7.80;6.95;;;26.80;1.00;;;;;;5030929;28;20115;-54
2022/08/31 11:03:56;;;;;;;6.60;6.05;;;26.80;1.00;;;;;;5022101;28;20029;-55
2022/08/31 11:06:43;;;;;;;6.60;6.00;;;26.90;1.00;;;;;;5043164;28;20033;-56
2022/08/31 11:09:24;;;;;;;6.05;5.55;;;27.00;1.00;;;;;;5021027;28;20034;-56
2022/08/31 11:12:08;;;;;;;7.45;6.75;;;27.10;1.00;;;;;;5034132;28;20033;-52
2022/08/31 11:14:59;;;;;;;9.40;8.50;;;27.30;1.00;;;;;;5034618;28;20021;-53
2022/08/31 11:17:43;;;;;;;6.35;5.85;;;27.40;1.00;;;;;;5044538;28;20105;-54
2022/08/31 11:20:42;;;;;;;8.70;7.70;;;27.50;1.00;;;;;;5042171;28;20455;-56
2022/08/31 11:23:26;;;;;;;9.73;8.77;;;27.60;1.00;;;;;;5033176;28;20418;-57
2022/08/31 11:26:08;;;;;;;9.82;7.78;;;27.70;1.00;;;;;;5031899;28;20037;-55
2022/08/31 11:28:47;;;;;;;8.30;7.45;;;27.80;1.00;;;;;;5033868;28;20065;-56
2022/08/31 11:31:29;;;;;;;8.88;8.07;;;27.90;1.00;;;;;;5033968;28;20333;-55
2022/08/31 11:34:17;;;;;;;10.18;9.27;;;27.80;1.00;;;;;;5034140;28;20116;-54
2022/08/31 11:36:48;;;;;;;9.93;9.02;;;27.80;1.00;;;;;;5031985;28;20030;-56
2022/08/31 11:39:29;;;;;;;9.15;8.25;;;28.00;1.00;;;;;;5034172;28;20022;-56
2022/08/31 11:41:57;;;;;;;9.23;8.32;;;28.00;1.00;;;;;;5033729;28;20028;-56
2022/08/31 11:44:29;;;;;;;10.13;9.13;;;27.90;1.00;;;;;;5033920;28;20030;-56
2022/08/31 11:47:15;;;;;;;8.38;7.57;;;27.90;1.00;;;;;;5035178;28;20025;-55
2022/08/31 11:49:48;;;;;;;8.07;7.40;;;28.20;1.00;;;;;;5020273;28;20046;-57
2022/08/31 11:52:37;;;;;;;8.88;8.18;;;28.30;1.00;;;;;;5035701;28;20021;-55
2022/08/31 11:55:24;;;;;;;8.65;7.70;;;28.50;1.00;;;;;;5026618;28;20021;-56
2022/08/31 11:58:05;;;;;;;9.57;8.68;;;28.50;1.00;;;;;;5027152;28;20487;-53
2022/08/31 12:01:08;;;;;;;9.07;8.27;;;28.60;1.00;;;;;;5022187;28;20083;-57
2022/08/31 12:03:42;;;;;;;7.67;7.03;;;28.80;1.00;;;;;;5034385;28;20048;-54
2022/08/31 12:06:35;;;;;;;7.82;7.13;;;29.00;1.00;;;;;;5038839;28;20083;-54
2022/08/31 12:09:08;;;;;;;8.80;8.07;;;29.20;1.00;;;;;;5020768;28;20029;-56
2022/08/31 12:12:02;;;;;;;6.75;6.00;;;29.00;1.00;;;;;;5032619;28;20291;-57
2022/08/31 12:14:33;;;;;;;7.15;6.55;;;30.10;1.00;;;;;;5032185;28;20087;-56
2022/08/31 12:17:20;;;;;;;7.40;6.80;;;33.60;1.00;;;;;;5032497;28;20049;-54
2022/08/31 12:19:58;;;;;;;6.95;6.35;;;35.80;1.00;;;;;;5022488;28;20112;-58
2022/08/31 12:25:36;;;;;;;7.07;6.57;;;34.00;1.00;;;;;;5033759;28;20044;-58
2022/08/31 12:28:13;;;;;;;7.00;6.18;;;35.80;1.00;;;;;;5020380;28;20096;-57
2022/08/31 12:30:52;;;;;;;7.90;6.97;;;36.50;1.00;;;;;;5031374;28;20151;-58
2022/08/31 12:33:22;;;;;;;6.65;6.15;;;36.60;1.00;;;;;;5033833;28;20112;-59
2022/08/31 12:36:10;;;;;;;7.55;6.85;;;35.60;1.00;;;;;;5033678;28;20040;-55
2022/08/31 12:38:39;;;;;;;7.22;6.63;;;35.20;1.00;;;;;;5035675;28;20037;-55
2022/08/31 12:41:09;;;;;;;6.10;5.70;;;35.10;1.00;;;;;;5018517;28;20072;-56
2022/08/31 12:43:41;;;;;;;8.07;7.47;;;35.80;1.00;;;;;;5032756;28;20526;-56
2022/08/31 12:46:30;;;;;;;7.45;6.95;;;36.20;1.00;;;;;;5034645;28;20021;-56
2022/08/31 12:49:22;;;;;;;7.40;6.63;;;37.30;1.00;;;;;;5020629;28;20102;-56
2022/08/31 12:51:51;;;;;;;6.93;6.43;;;38.20;1.00;;;;;;5027995;28;20098;-57
2022/08/31 12:54:19;;;;;;;7.95;7.45;;;39.10;1.00;;;;;;5032631;28;20036;-57
2022/08/31 12:57:26;;;;;;;9.18;8.40;;;39.10;1.00;;;;;;5030753;28;20056;-57
2022/08/31 13:00:21;;;;;;;8.32;7.82;;;38.90;1.00;;;;;;5033071;28;20056;-57
2022/08/31 13:02:50;;;;;;;7.53;7.00;;;39.00;1.00;;;;;;5033212;28;20041;-57
2022/08/31 13:05:24;;;;;;;8.00;7.40;;;40.40;1.00;;;;;;5032781;28;20029;-56
2022/08/31 13:07:51;;;;;;;8.60;6.63;;;41.10;1.00;;;;;;5031520;28;20067;-58
2022/08/31 13:10:32;;;;;;;7.78;7.20;;;41.20;1.00;;;;;;5031026;28;20025;-57
2022/08/31 13:13:05;;;;;;;7.55;6.93;;;40.00;1.00;;;;;;5039419;28;20060;-56
2022/08/31 13:15:41;;;;;;;7.78;7.28;;;40.60;1.00;;;;;;5032503;28;20033;-55
2022/08/31 13:18:22;;;;;;;6.57;6.18;;;38.10;1.00;;;;;;5030354;28;20075;-55
2022/08/31 13:21:01;;;;;;;7.13;6.63;;;36.20;1.00;;;;;;5031697;28;20052;-56
2022/08/31 13:23:30;;;;;;;7.70;7.00;;;35.00;1.00;;;;;;5022251;28;20420;-56
2022/08/31 13:26:18;;;;;;;6.75;6.13;;;33.80;1.00;;;;;;5031089;28;20021;-55
2022/08/31 13:28:52;;;;;;;6.30;5.78;;;33.20;1.00;;;;;;5032386;28;20029;-56
2022/08/31 13:31:20;;;;;;;;;;;32.70;1.00;;;;;;5031526;28;20371;-56
2022/08/31 13:33:47;;;;;;;7.30;6.60;;;32.10;1.00;;;;;;5029474;28;19955;-55
2022/08/31 13:36:31;;;;;;;7.10;6.55;;;31.80;1.00;;;;;;5030428;28;20028;-56
2022/08/31 13:39:25;;;;;;;5.82;5.43;;;32.00;1.00;;;;;;5044282;28;20037;-56
2022/08/31 13:42:05;;;;;;;8.23;7.53;;;32.10;1.00;;;;;;5023038;28;20033;-54
2022/08/31 13:44:38;;;;;;;7.28;6.68;;;32.90;1.00;;;;;;5036456;28;20041;-55
2022/08/31 13:47:26;;;;;;;6.90;6.30;;;33.50;1.00;;;;;;5037292;28;20032;-54
2022/08/31 13:50:17;;;;;;;6.60;6.10;;;32.40;1.00;;;;;;5034017;28;20051;-55
2022/08/31 13:53:38;;;;;;;6.65;6.13;;;32.40;1.00;;;;;;5041719;28;20025;-55
2022/08/31 13:59:23;;;;;;;8.75;7.93;;;31.90;1.00;;;;;;5032131;28;20047;-54
2022/08/31 14:01:48;;;;;;;7.95;7.35;;;31.70;1.00;;;;;;5034712;28;20051;-56
2022/08/31 14:04:49;;;;;;;7.35;6.65;;;32.00;1.00;;;;;;5041697;28;20508;-52
2022/08/31 14:07:28;;;;;;;8.02;6.97;;;31.80;1.00;;;;;;5031272;28;20033;-56
2022/08/31 14:10:01;;;;;;;7.40;6.70;;;32.00;1.00;;;;;;5031628;28;20026;-56